< < Back
Terminal Aerodrome Forecast


Current Version              Previous Versions:   1  2  3  4  5  6  7  8  9  

Terminal Aerodrome Forecast

723
FTUS42 KGSP 301739
TAFGSP
TAF
KGSP 301739Z 3018/0118 14005KT P6SM VCTS BKN045CB
     FM302000 15005KT P6SM VCTS BKN050CB
      TEMPO 3022/0102 VRB15G25KT 4SM TSRA BKN030CB
     FM010300 19004KT P6SM VCTS BKN050CB
     FM010500 25003KT P6SM BKN060
     FM010900 00000KT 5SM BR SCT005
     FM011400 24006KT P6SM SCT040=



Latest METAR

481
SAUS70 KWBC 010400 RRX
MTRGSP
METAR KGSP 010353Z 22004KT 10SM CLR 24/20 A3002 RMK AO2 SLP155
T02390200


USA.gov is the U.S. government's official web portal to all federal, state and local government web resources and services.